sensor_id;sensor_type;location;lat;lon;timestamp;temperature;humidity
1351;DHT22;669;50.206;9.998;2023-02-11T00:01:21;0.00;90.40
1351;DHT22;669;50.206;9.998;2023-02-11T00:03:51;0.00;90.20
1351;DHT22;669;50.206;9.998;2023-02-11T00:06:19;0.00;90.10
1351;DHT22;669;50.206;9.998;2023-02-11T00:08:47;0.00;90.00
1351;DHT22;669;50.206;9.998;2023-02-11T00:11:19;0.00;90.00
1351;DHT22;669;50.206;9.998;2023-02-11T00:13:47;0.10;90.20
1351;DHT22;669;50.206;9.998;2023-02-11T00:16:16;0.10;90.20
1351;DHT22;669;50.206;9.998;2023-02-11T00:18:45;0.20;90.20
1351;DHT22;669;50.206;9.998;2023-02-11T00:21:15;0.20;90.10
1351;DHT22;669;50.206;9.998;2023-02-11T00:23:44;0.30;90.10
1351;DHT22;669;50.206;9.998;2023-02-11T00:26:14;0.30;90.00
1351;DHT22;669;50.206;9.998;2023-02-11T00:28:45;0.40;89.90
1351;DHT22;669;50.206;9.998;2023-02-11T00:31:14;0.40;89.50
1351;DHT22;669;50.206;9.998;2023-02-11T00:33:42;0.50;89.60
1351;DHT22;669;50.206;9.998;2023-02-11T00:36:13;0.50;89.60
1351;DHT22;669;50.206;9.998;2023-02-11T00:38:42;0.50;89.60
1351;DHT22;669;50.206;9.998;2023-02-11T00:41:11;0.60;89.70
1351;DHT22;669;50.206;9.998;2023-02-11T00:43:39;0.60;89.30
1351;DHT22;669;50.206;9.998;2023-02-11T00:46:09;0.60;88.90
1351;DHT22;669;50.206;9.998;2023-02-11T00:48:38;0.70;88.60
1351;DHT22;669;50.206;9.998;2023-02-11T00:51:06;0.60;87.80
1351;DHT22;669;50.206;9.998;2023-02-11T00:53:34;0.60;87.40
1351;DHT22;669;50.206;9.998;2023-02-11T00:56:03;0.60;87.00
1351;DHT22;669;50.206;9.998;2023-02-11T00:58:31;0.60;86.90
1351;DHT22;669;50.206;9.998;2023-02-11T01:00:59;0.50;86.80
1351;DHT22;669;50.206;9.998;2023-02-11T01:03:29;0.50;87.10
1351;DHT22;669;50.206;9.998;2023-02-11T01:05:56;0.50;86.70
1351;DHT22;669;50.206;9.998;2023-02-11T01:08:24;0.40;87.00
1351;DHT22;669;50.206;9.998;2023-02-11T01:10:54;0.40;87.50
1351;DHT22;669;50.206;9.998;2023-02-11T01:13:22;0.40;87.90
1351;DHT22;669;50.206;9.998;2023-02-11T01:15:50;0.30;88.20
1351;DHT22;669;50.206;9.998;2023-02-11T01:18:19;0.40;88.10
1351;DHT22;669;50.206;9.998;2023-02-11T01:20:50;0.40;87.90
1351;DHT22;669;50.206;9.998;2023-02-11T01:23:18;0.40;88.20
1351;DHT22;669;50.206;9.998;2023-02-11T01:25:47;0.40;88.10
1351;DHT22;669;50.206;9.998;2023-02-11T01:28:16;0.40;88.20
1351;DHT22;669;50.206;9.998;2023-02-11T01:30:45;0.40;88.20
1351;DHT22;669;50.206;9.998;2023-02-11T01:33:13;0.40;88.60
1351;DHT22;669;50.206;9.998;2023-02-11T01:35:42;0.40;88.70
1351;DHT22;669;50.206;9.998;2023-02-11T01:38:14;0.50;88.90
1351;DHT22;669;50.206;9.998;2023-02-11T01:40:46;0.50;88.60
1351;DHT22;669;50.206;9.998;2023-02-11T01:43:14;0.60;88.50
1351;DHT22;669;50.206;9.998;2023-02-11T01:46:11;0.60;88.60
1351;DHT22;669;50.206;9.998;2023-02-11T01:48:42;0.60;89.00
1351;DHT22;669;50.206;9.998;2023-02-11T01:51:13;0.70;89.20
1351;DHT22;669;50.206;9.998;2023-02-11T01:53:45;0.80;89.30
1351;DHT22;669;50.206;9.998;2023-02-11T01:56:33;0.80;89.10
1351;DHT22;669;50.206;9.998;2023-02-11T01:59:22;0.90;88.90
1351;DHT22;669;50.206;9.998;2023-02-11T02:01:55;1.00;88.50
1351;DHT22;669;50.206;9.998;2023-02-11T02:04:24;1.10;86.70
1351;DHT22;669;50.206;9.998;2023-02-11T02:07:00;1.10;85.90
1351;DHT22;669;50.206;9.998;2023-02-11T02:09:37;1.10;85.60
1351;DHT22;669;50.206;9.998;2023-02-11T02:12:06;1.10;85.60
1351;DHT22;669;50.206;9.998;2023-02-11T02:14:37;1.10;85.60
1351;DHT22;669;50.206;9.998;2023-02-11T02:17:06;1.10;85.60
1351;DHT22;669;50.206;9.998;2023-02-11T02:20:02;1.00;85.50
1351;DHT22;669;50.206;9.998;2023-02-11T02:23:06;1.00;85.50
1351;DHT22;669;50.206;9.998;2023-02-11T02:26:05;0.90;84.80
1351;DHT22;669;50.206;9.998;2023-02-11T02:28:54;0.80;85.30
1351;DHT22;669;50.206;9.998;2023-02-11T02:31:43;0.80;85.90
1351;DHT22;669;50.206;9.998;2023-02-11T02:34:18;0.70;85.80
1351;DHT22;669;50.206;9.998;2023-02-11T02:36:54;0.70;86.60
1351;DHT22;669;50.206;9.998;2023-02-11T02:39:28;0.70;87.30
1351;DHT22;669;50.206;9.998;2023-02-11T02:41:57;0.70;87.10
1351;DHT22;669;50.206;9.998;2023-02-11T02:44:25;0.70;86.90
1351;DHT22;669;50.206;9.998;2023-02-11T02:46:53;0.70;87.60
1351;DHT22;669;50.206;9.998;2023-02-11T02:49:23;0.70;87.50
1351;DHT22;669;50.206;9.998;2023-02-11T02:52:00;0.70;88.10
1351;DHT22;669;50.206;9.998;2023-02-11T02:57:29;0.70;88.80
1351;DHT22;669;50.206;9.998;2023-02-11T03:00:12;0.70;89.20
1351;DHT22;669;50.206;9.998;2023-02-11T03:02:49;0.70;89.20
1351;DHT22;669;50.206;9.998;2023-02-11T03:05:24;0.70;89.20
1351;DHT22;669;50.206;9.998;2023-02-11T03:07:59;0.70;89.50
1351;DHT22;669;50.206;9.998;2023-02-11T03:10:31;0.70;89.40
1351;DHT22;669;50.206;9.998;2023-02-11T03:13:02;0.70;89.50
1351;DHT22;669;50.206;9.998;2023-02-11T03:15:36;0.70;89.50
1351;DHT22;669;50.206;9.998;2023-02-11T03:18:06;0.70;89.10
1351;DHT22;669;50.206;9.998;2023-02-11T03:20:38;0.70;89.40
1351;DHT22;669;50.206;9.998;2023-02-11T03:23:10;0.70;89.50
1351;DHT22;669;50.206;9.998;2023-02-11T03:25:43;0.80;89.90
1351;DHT22;669;50.206;9.998;2023-02-11T03:28:16;0.80;89.90
1351;DHT22;669;50.206;9.998;2023-02-11T03:30:54;0.80;89.60
1351;DHT22;669;50.206;9.998;2023-02-11T03:33:26;0.80;89.20
1351;DHT22;669;50.206;9.998;2023-02-11T03:36:01;0.80;89.00
1351;DHT22;669;50.206;9.998;2023-02-11T03:38:32;0.80;89.00
1351;DHT22;669;50.206;9.998;2023-02-11T03:41:05;0.70;88.90
1351;DHT22;669;50.206;9.998;2023-02-11T03:43:36;0.70;89.40
1351;DHT22;669;50.206;9.998;2023-02-11T03:46:05;0.70;90.00
1351;DHT22;669;50.206;9.998;2023-02-11T03:48:38;0.70;89.20
1351;DHT22;669;50.206;9.998;2023-02-11T03:51:10;0.70;88.60
1351;DHT22;669;50.206;9.998;2023-02-11T03:53:41;0.70;89.20
1351;DHT22;669;50.206;9.998;2023-02-11T03:56:13;0.70;89.10
1351;DHT22;669;50.206;9.998;2023-02-11T03:58:43;0.70;89.10
1351;DHT22;669;50.206;9.998;2023-02-11T04:01:11;0.70;89.80
1351;DHT22;669;50.206;9.998;2023-02-11T04:03:39;0.80;90.20
1351;DHT22;669;50.206;9.998;2023-02-11T04:06:09;0.80;90.50
1351;DHT22;669;50.206;9.998;2023-02-11T04:08:37;0.80;90.60
1351;DHT22;669;50.206;9.998;2023-02-11T04:11:05;0.80;90.50
1351;DHT22;669;50.206;9.998;2023-02-11T04:13:32;0.90;90.60
1351;DHT22;669;50.206;9.998;2023-02-11T04:16:00;0.90;90.50
1351;DHT22;669;50.206;9.998;2023-02-11T04:18:28;0.90;90.50
1351;DHT22;669;50.206;9.998;2023-02-11T04:20:56;0.90;90.50
1351;DHT22;669;50.206;9.998;2023-02-11T04:23:26;0.90;90.20
1351;DHT22;669;50.206;9.998;2023-02-11T04:25:53;0.80;89.90
1351;DHT22;669;50.206;9.998;2023-02-11T04:28:21;0.80;90.00
1351;DHT22;669;50.206;9.998;2023-02-11T04:30:50;0.80;89.90
1351;DHT22;669;50.206;9.998;2023-02-11T04:33:18;0.70;90.00
1351;DHT22;669;50.206;9.998;2023-02-11T04:35:46;0.60;89.70
1351;DHT22;669;50.206;9.998;2023-02-11T04:38:15;0.60;89.70
1351;DHT22;669;50.206;9.998;2023-02-11T04:40:45;0.40;89.50
1351;DHT22;669;50.206;9.998;2023-02-11T04:43:13;0.40;90.00
1351;DHT22;669;50.206;9.998;2023-02-11T04:45:40;0.30;90.30
1351;DHT22;669;50.206;9.998;2023-02-11T04:48:08;0.40;90.80
1351;DHT22;669;50.206;9.998;2023-02-11T04:50:36;0.40;91.10
1351;DHT22;669;50.206;9.998;2023-02-11T04:53:04;0.40;91.00
1351;DHT22;669;50.206;9.998;2023-02-11T04:55:32;0.50;91.30
1351;DHT22;669;50.206;9.998;2023-02-11T04:58:01;0.50;91.20
1351;DHT22;669;50.206;9.998;2023-02-11T05:00:29;0.50;91.30
1351;DHT22;669;50.206;9.998;2023-02-11T05:02:57;0.60;91.40
1351;DHT22;669;50.206;9.998;2023-02-11T05:05:25;0.60;91.40
1351;DHT22;669;50.206;9.998;2023-02-11T05:07:53;0.60;91.40
1351;DHT22;669;50.206;9.998;2023-02-11T05:10:21;0.60;91.40
1351;DHT22;669;50.206;9.998;2023-02-11T05:12:49;0.60;91.40
1351;DHT22;669;50.206;9.998;2023-02-11T05:15:21;0.60;91.50
1351;DHT22;669;50.206;9.998;2023-02-11T05:17:49;0.60;91.50
1351;DHT22;669;50.206;9.998;2023-02-11T05:20:17;0.70;91.50
1351;DHT22;669;50.206;9.998;2023-02-11T05:22:45;0.70;91.60
1351;DHT22;669;50.206;9.998;2023-02-11T05:25:13;0.70;91.70
1351;DHT22;669;50.206;9.998;2023-02-11T05:27:41;0.70;91.60
1351;DHT22;669;50.206;9.998;2023-02-11T05:30:10;0.80;91.70
1351;DHT22;669;50.206;9.998;2023-02-11T05:32:39;0.80;91.70
1351;DHT22;669;50.206;9.998;2023-02-11T05:35:07;0.80;91.70
1351;DHT22;669;50.206;9.998;2023-02-11T05:37:35;0.90;91.70
1351;DHT22;669;50.206;9.998;2023-02-11T05:40:04;0.90;91.70
1351;DHT22;669;50.206;9.998;2023-02-11T05:42:32;0.90;91.70
1351;DHT22;669;50.206;9.998;2023-02-11T05:45:00;1.00;92.00
1351;DHT22;669;50.206;9.998;2023-02-11T05:47:28;1.00;91.70
1351;DHT22;669;50.206;9.998;2023-02-11T05:49:57;1.00;91.50
1351;DHT22;669;50.206;9.998;2023-02-11T05:52:25;1.00;91.50
1351;DHT22;669;50.206;9.998;2023-02-11T05:54:53;1.00;91.50
1351;DHT22;669;50.206;9.998;2023-02-11T05:57:21;1.00;91.50
1351;DHT22;669;50.206;9.998;2023-02-11T05:59:49;1.00;91.40
1351;DHT22;669;50.206;9.998;2023-02-11T06:02:17;1.00;91.50
1351;DHT22;669;50.206;9.998;2023-02-11T06:04:45;1.00;91.40
1351;DHT22;669;50.206;9.998;2023-02-11T06:07:14;1.10;91.40
1351;DHT22;669;50.206;9.998;2023-02-11T06:09:43;1.00;91.40
1351;DHT22;669;50.206;9.998;2023-02-11T06:12:11;1.10;91.50
1351;DHT22;669;50.206;9.998;2023-02-11T06:14:39;1.00;91.50
1351;DHT22;669;50.206;9.998;2023-02-11T06:17:07;1.10;91.50
1351;DHT22;669;50.206;9.998;2023-02-11T06:19:35;1.10;91.40
1351;DHT22;669;50.206;9.998;2023-02-11T06:22:02;1.10;91.40
1351;DHT22;669;50.206;9.998;2023-02-11T06:24:33;1.10;91.30
1351;DHT22;669;50.206;9.998;2023-02-11T06:27:21;1.10;91.30
1351;DHT22;669;50.206;9.998;2023-02-11T06:29:49;1.10;91.30
1351;DHT22;669;50.206;9.998;2023-02-11T06:32:18;1.10;91.30
1351;DHT22;669;50.206;9.998;2023-02-11T06:35:06;1.10;91.20
1351;DHT22;669;50.206;9.998;2023-02-11T06:37:37;1.10;91.40
1351;DHT22;669;50.206;9.998;2023-02-11T06:40:07;1.10;91.40
1351;DHT22;669;50.206;9.998;2023-02-11T06:42:35;1.10;91.40
1351;DHT22;669;50.206;9.998;2023-02-11T06:45:05;1.10;91.30
1351;DHT22;669;50.206;9.998;2023-02-11T06:47:34;1.20;91.30
1351;DHT22;669;50.206;9.998;2023-02-11T06:50:03;1.20;91.30
1351;DHT22;669;50.206;9.998;2023-02-11T06:52:31;1.20;91.30
1351;DHT22;669;50.206;9.998;2023-02-11T06:54:59;1.20;91.30
1351;DHT22;669;50.206;9.998;2023-02-11T06:57:30;1.20;91.30
1351;DHT22;669;50.206;9.998;2023-02-11T06:59:58;1.20;91.30
1351;DHT22;669;50.206;9.998;2023-02-11T07:02:26;1.20;91.30
1351;DHT22;669;50.206;9.998;2023-02-11T07:04:54;1.20;91.30
1351;DHT22;669;50.206;9.998;2023-02-11T07:07:22;1.20;91.30
1351;DHT22;669;50.206;9.998;2023-02-11T07:09:50;1.20;91.30
1351;DHT22;669;50.206;9.998;2023-02-11T07:12:18;1.20;91.20
1351;DHT22;669;50.206;9.998;2023-02-11T07:14:47;1.30;91.30
1351;DHT22;669;50.206;9.998;2023-02-11T07:17:15;1.30;91.30
1351;DHT22;669;50.206;9.998;2023-02-11T07:19:43;1.30;91.20
1351;DHT22;669;50.206;9.998;2023-02-11T07:22:11;1.30;91.10
1351;DHT22;669;50.206;9.998;2023-02-11T07:24:39;1.40;91.10
1351;DHT22;669;50.206;9.998;2023-02-11T07:27:07;1.40;91.10
1351;DHT22;669;50.206;9.998;2023-02-11T07:29:35;1.40;91.00
1351;DHT22;669;50.206;9.998;2023-02-11T07:32:04;1.40;90.90
1351;DHT22;669;50.206;9.998;2023-02-11T07:34:32;1.40;91.00
1351;DHT22;669;50.206;9.998;2023-02-11T07:37:00;1.50;91.00
1351;DHT22;669;50.206;9.998;2023-02-11T07:39:28;1.50;91.00
1351;DHT22;669;50.206;9.998;2023-02-11T07:41:56;1.60;91.00
1351;DHT22;669;50.206;9.998;2023-02-11T07:44:25;1.60;90.80
1351;DHT22;669;50.206;9.998;2023-02-11T07:46:53;1.70;90.60
1351;DHT22;669;50.206;9.998;2023-02-11T07:49:23;1.70;90.40
1351;DHT22;669;50.206;9.998;2023-02-11T07:51:51;1.70;90.40
1351;DHT22;669;50.206;9.998;2023-02-11T07:54:19;1.70;90.50
1351;DHT22;669;50.206;9.998;2023-02-11T07:56:47;1.80;90.60
1351;DHT22;669;50.206;9.998;2023-02-11T07:59:15;1.80;90.60
1351;DHT22;669;50.206;9.998;2023-02-11T08:01:43;1.90;90.60
1351;DHT22;669;50.206;9.998;2023-02-11T08:04:11;1.90;90.40
1351;DHT22;669;50.206;9.998;2023-02-11T08:06:43;2.00;90.40
1351;DHT22;669;50.206;9.998;2023-02-11T08:09:14;2.00;90.10
1351;DHT22;669;50.206;9.998;2023-02-11T08:11:43;2.10;90.50
1351;DHT22;669;50.206;9.998;2023-02-11T08:14:11;2.10;90.00
1351;DHT22;669;50.206;9.998;2023-02-11T08:16:39;2.20;90.10
1351;DHT22;669;50.206;9.998;2023-02-11T08:19:10;2.20;90.00
1351;DHT22;669;50.206;9.998;2023-02-11T08:21:40;2.30;90.00
1351;DHT22;669;50.206;9.998;2023-02-11T08:24:09;2.40;89.30
1351;DHT22;669;50.206;9.998;2023-02-11T08:26:37;2.50;89.40
1351;DHT22;669;50.206;9.998;2023-02-11T08:29:07;2.60;90.10
1351;DHT22;669;50.206;9.998;2023-02-11T08:31:38;2.70;87.10
1351;DHT22;669;50.206;9.998;2023-02-11T08:34:06;2.80;86.80
1351;DHT22;669;50.206;9.998;2023-02-11T08:36:37;2.90;86.40
1351;DHT22;669;50.206;9.998;2023-02-11T08:39:12;3.00;86.60
1351;DHT22;669;50.206;9.998;2023-02-11T08:41:46;3.10;84.80
1351;DHT22;669;50.206;9.998;2023-02-11T08:44:15;3.10;84.60
1351;DHT22;669;50.206;9.998;2023-02-11T08:46:43;3.20;83.10
1351;DHT22;669;50.206;9.998;2023-02-11T08:49:11;3.20;80.70
1351;DHT22;669;50.206;9.998;2023-02-11T08:51:39;3.20;81.00
1351;DHT22;669;50.206;9.998;2023-02-11T08:54:08;3.10;81.00
1351;DHT22;669;50.206;9.998;2023-02-11T08:56:37;3.10;81.60
1351;DHT22;669;50.206;9.998;2023-02-11T08:59:05;3.10;82.00
1351;DHT22;669;50.206;9.998;2023-02-11T09:01:34;3.10;81.70
1351;DHT22;669;50.206;9.998;2023-02-11T09:04:03;3.20;82.00
1351;DHT22;669;50.206;9.998;2023-02-11T09:06:31;3.20;81.80
1351;DHT22;669;50.206;9.998;2023-02-11T09:08:59;3.30;80.50
1351;DHT22;669;50.206;9.998;2023-02-11T09:11:31;3.30;79.00
1351;DHT22;669;50.206;9.998;2023-02-11T09:13:59;3.30;79.50
1351;DHT22;669;50.206;9.998;2023-02-11T09:16:29;3.30;80.30
1351;DHT22;669;50.206;9.998;2023-02-11T09:18:58;3.20;80.50
1351;DHT22;669;50.206;9.998;2023-02-11T09:21:27;3.20;81.00
1351;DHT22;669;50.206;9.998;2023-02-11T09:23:56;3.30;81.30
1351;DHT22;669;50.206;9.998;2023-02-11T09:26:26;3.30;81.80
1351;DHT22;669;50.206;9.998;2023-02-11T09:28:56;3.30;81.90
1351;DHT22;669;50.206;9.998;2023-02-11T09:31:25;3.30;81.80
1351;DHT22;669;50.206;9.998;2023-02-11T09:33:55;3.30;81.70
1351;DHT22;669;50.206;9.998;2023-02-11T09:36:25;3.40;81.70
1351;DHT22;669;50.206;9.998;2023-02-11T09:38:57;3.40;82.00
1351;DHT22;669;50.206;9.998;2023-02-11T09:41:34;3.50;82.30
1351;DHT22;669;50.206;9.998;2023-02-11T09:44:07;3.50;81.70
1351;DHT22;669;50.206;9.998;2023-02-11T09:46:40;3.50;81.50
1351;DHT22;669;50.206;9.998;2023-02-11T09:49:16;3.60;81.60
1351;DHT22;669;50.206;9.998;2023-02-11T09:51:48;3.60;81.60
1351;DHT22;669;50.206;9.998;2023-02-11T09:54:22;3.70;81.50
1351;DHT22;669;50.206;9.998;2023-02-11T09:56:53;3.70;80.90
1351;DHT22;669;50.206;9.998;2023-02-11T09:59:23;3.70;81.10
1351;DHT22;669;50.206;9.998;2023-02-11T10:01:54;3.80;81.20
1351;DHT22;669;50.206;9.998;2023-02-11T10:04:39;3.80;81.10
1351;DHT22;669;50.206;9.998;2023-02-11T10:07:16;3.90;81.10
1351;DHT22;669;50.206;9.998;2023-02-11T10:09:58;3.90;81.40
1351;DHT22;669;50.206;9.998;2023-02-11T10:12:36;4.00;80.20
1351;DHT22;669;50.206;9.998;2023-02-11T10:15:17;4.00;80.10
1351;DHT22;669;50.206;9.998;2023-02-11T10:18:06;4.10;79.50
1351;DHT22;669;50.206;9.998;2023-02-11T10:20:38;4.10;80.40
1351;DHT22;669;50.206;9.998;2023-02-11T10:23:16;4.10;79.10
1351;DHT22;669;50.206;9.998;2023-02-11T10:25:48;4.20;79.20
1351;DHT22;669;50.206;9.998;2023-02-11T10:28:20;4.30;79.30
1351;DHT22;669;50.206;9.998;2023-02-11T10:30:57;4.30;79.30
1351;DHT22;669;50.206;9.998;2023-02-11T10:33:29;4.40;78.90
1351;DHT22;669;50.206;9.998;2023-02-11T10:35:58;4.50;78.60
1351;DHT22;669;50.206;9.998;2023-02-11T10:38:26;4.50;78.70
1351;DHT22;669;50.206;9.998;2023-02-11T10:40:54;4.50;79.50
1351;DHT22;669;50.206;9.998;2023-02-11T10:43:25;4.50;79.00
1351;DHT22;669;50.206;9.998;2023-02-11T10:45:55;4.60;78.90
1351;DHT22;669;50.206;9.998;2023-02-11T10:48:40;4.70;78.60
1351;DHT22;669;50.206;9.998;2023-02-11T10:51:17;4.70;77.00
1351;DHT22;669;50.206;9.998;2023-02-11T10:53:47;4.70;77.30
1351;DHT22;669;50.206;9.998;2023-02-11T10:56:21;4.70;77.50
1351;DHT22;669;50.206;9.998;2023-02-11T10:58:56;4.70;78.10
1351;DHT22;669;50.206;9.998;2023-02-11T11:01:39;4.70;77.90
1351;DHT22;669;50.206;9.998;2023-02-11T11:04:31;4.70;77.80
1351;DHT22;669;50.206;9.998;2023-02-11T11:07:11;4.70;78.50
1351;DHT22;669;50.206;9.998;2023-02-11T11:09:45;4.70;77.90
1351;DHT22;669;50.206;9.998;2023-02-11T11:12:29;4.70;78.20
1351;DHT22;669;50.206;9.998;2023-02-11T11:15:00;4.70;78.50
1351;DHT22;669;50.206;9.998;2023-02-11T11:17:29;4.70;79.10
1351;DHT22;669;50.206;9.998;2023-02-11T11:20:23;4.70;79.40
1351;DHT22;669;50.206;9.998;2023-02-11T11:23:10;4.70;79.40
1351;DHT22;669;50.206;9.998;2023-02-11T11:25:43;4.70;79.70
1351;DHT22;669;50.206;9.998;2023-02-11T11:28:24;4.70;80.10
1351;DHT22;669;50.206;9.998;2023-02-11T11:30:54;4.70;80.00
1351;DHT22;669;50.206;9.998;2023-02-11T11:33:26;4.70;80.10
1351;DHT22;669;50.206;9.998;2023-02-11T11:35:59;4.80;80.10
1351;DHT22;669;50.206;9.998;2023-02-11T11:38:28;4.80;79.80
1351;DHT22;669;50.206;9.998;2023-02-11T11:41:23;4.80;80.00
1351;DHT22;669;50.206;9.998;2023-02-11T11:43:55;4.80;79.80
1351;DHT22;669;50.206;9.998;2023-02-11T11:46:26;4.80;79.80
1351;DHT22;669;50.206;9.998;2023-02-11T11:49:02;4.80;79.80
1351;DHT22;669;50.206;9.998;2023-02-11T11:51:35;4.80;80.10
1351;DHT22;669;50.206;9.998;2023-02-11T11:54:09;4.80;80.20
1351;DHT22;669;50.206;9.998;2023-02-11T11:56:43;4.80;80.50
1351;DHT22;669;50.206;9.998;2023-02-11T11:59:13;4.90;80.30
1351;DHT22;669;50.206;9.998;2023-02-11T12:01:53;4.90;80.70
1351;DHT22;669;50.206;9.998;2023-02-11T12:04:41;4.90;80.70
1351;DHT22;669;50.206;9.998;2023-02-11T12:07:24;4.90;80.70
1351;DHT22;669;50.206;9.998;2023-02-11T12:10:17;4.90;80.60
1351;DHT22;669;50.206;9.998;2023-02-11T12:12:53;4.90;80.80
1351;DHT22;669;50.206;9.998;2023-02-11T12:15:31;4.90;81.20
1351;DHT22;669;50.206;9.998;2023-02-11T12:18:21;4.90;81.30
1351;DHT22;669;50.206;9.998;2023-02-11T12:21:06;4.90;81.60
1351;DHT22;669;50.206;9.998;2023-02-11T12:23:43;4.90;81.80
1351;DHT22;669;50.206;9.998;2023-02-11T12:26:17;4.90;82.10
1351;DHT22;669;50.206;9.998;2023-02-11T12:28:59;4.90;82.40
1351;DHT22;669;50.206;9.998;2023-02-11T12:31:38;4.90;82.40
1351;DHT22;669;50.206;9.998;2023-02-11T12:37:13;4.90;82.60
1351;DHT22;669;50.206;9.998;2023-02-11T12:39:50;5.00;82.80
1351;DHT22;669;50.206;9.998;2023-02-11T12:42:34;5.00;82.90
1351;DHT22;669;50.206;9.998;2023-02-11T12:45:37;5.00;82.80
1351;DHT22;669;50.206;9.998;2023-02-11T12:48:20;5.00;82.60
1351;DHT22;669;50.206;9.998;2023-02-11T12:50:55;5.00;82.80
1351;DHT22;669;50.206;9.998;2023-02-11T12:53:35;5.10;82.50
1351;DHT22;669;50.206;9.998;2023-02-11T12:56:09;5.10;82.60
1351;DHT22;669;50.206;9.998;2023-02-11T12:58:39;5.20;82.90
1351;DHT22;669;50.206;9.998;2023-02-11T13:01:17;5.20;82.70
1351;DHT22;669;50.206;9.998;2023-02-11T13:03:48;5.20;82.50
1351;DHT22;669;50.206;9.998;2023-02-11T13:06:20;5.30;82.30
1351;DHT22;669;50.206;9.998;2023-02-11T13:08:52;5.30;82.00
1351;DHT22;669;50.206;9.998;2023-02-11T13:11:27;5.30;82.20
1351;DHT22;669;50.206;9.998;2023-02-11T13:14:00;5.30;81.80
1351;DHT22;669;50.206;9.998;2023-02-11T13:16:34;5.20;82.10
1351;DHT22;669;50.206;9.998;2023-02-11T13:19:11;5.20;82.10
1351;DHT22;669;50.206;9.998;2023-02-11T13:21:55;5.20;82.40
1351;DHT22;669;50.206;9.998;2023-02-11T13:24:36;5.20;82.10
1351;DHT22;669;50.206;9.998;2023-02-11T13:27:14;5.30;82.80
1351;DHT22;669;50.206;9.998;2023-02-11T13:30:17;5.20;82.70
1351;DHT22;669;50.206;9.998;2023-02-11T13:33:03;5.20;83.20
1351;DHT22;669;50.206;9.998;2023-02-11T13:35:33;5.20;83.20
1351;DHT22;669;50.206;9.998;2023-02-11T13:38:03;5.20;83.80
1351;DHT22;669;50.206;9.998;2023-02-11T13:40:35;5.20;83.40
1351;DHT22;669;50.206;9.998;2023-02-11T13:43:05;5.20;83.20
1351;DHT22;669;50.206;9.998;2023-02-11T13:45:36;5.20;83.10
1351;DHT22;669;50.206;9.998;2023-02-11T13:48:16;5.20;83.00
1351;DHT22;669;50.206;9.998;2023-02-11T13:50:47;5.20;83.20
1351;DHT22;669;50.206;9.998;2023-02-11T13:53:16;5.20;83.50
1351;DHT22;669;50.206;9.998;2023-02-11T13:55:47;5.20;82.70
1351;DHT22;669;50.206;9.998;2023-02-11T13:58:18;5.20;82.10
1351;DHT22;669;50.206;9.998;2023-02-11T14:00:59;5.20;82.50
1351;DHT22;669;50.206;9.998;2023-02-11T14:03:33;5.20;82.30
1351;DHT22;669;50.206;9.998;2023-02-11T14:06:22;5.20;82.50
1351;DHT22;669;50.206;9.998;2023-02-11T14:09:36;5.20;82.50
1351;DHT22;669;50.206;9.998;2023-02-11T14:12:30;5.20;82.30
1351;DHT22;669;50.206;9.998;2023-02-11T14:15:17;5.20;82.60
1351;DHT22;669;50.206;9.998;2023-02-11T14:17:45;5.20;82.90
1351;DHT22;669;50.206;9.998;2023-02-11T14:20:32;5.10;83.10
1351;DHT22;669;50.206;9.998;2023-02-11T14:23:01;5.20;83.20
1351;DHT22;669;50.206;9.998;2023-02-11T14:25:30;5.20;83.20
1351;DHT22;669;50.206;9.998;2023-02-11T14:28:07;5.20;83.20
1351;DHT22;669;50.206;9.998;2023-02-11T14:30:48;5.10;83.40
1351;DHT22;669;50.206;9.998;2023-02-11T14:33:30;5.10;83.70
1351;DHT22;669;50.206;9.998;2023-02-11T14:36:11;5.10;84.10
1351;DHT22;669;50.206;9.998;2023-02-11T14:38:55;5.00;84.10
1351;DHT22;669;50.206;9.998;2023-02-11T14:41:26;5.00;84.60
1351;DHT22;669;50.206;9.998;2023-02-11T14:43:58;5.00;84.60
1351;DHT22;669;50.206;9.998;2023-02-11T14:46:28;5.00;84.90
1351;DHT22;669;50.206;9.998;2023-02-11T14:49:00;5.00;85.20
1351;DHT22;669;50.206;9.998;2023-02-11T14:51:30;4.90;85.50
1351;DHT22;669;50.206;9.998;2023-02-11T14:54:08;4.90;86.00
1351;DHT22;669;50.206;9.998;2023-02-11T14:56:38;4.90;86.10
1351;DHT22;669;50.206;9.998;2023-02-11T14:59:15;4.90;86.70
1351;DHT22;669;50.206;9.998;2023-02-11T15:01:47;4.90;87.10
1351;DHT22;669;50.206;9.998;2023-02-11T15:04:23;4.80;87.10
1351;DHT22;669;50.206;9.998;2023-02-11T15:06:52;4.80;87.60
1351;DHT22;669;50.206;9.998;2023-02-11T15:09:22;4.80;88.10
1351;DHT22;669;50.206;9.998;2023-02-11T15:11:55;4.80;88.20
1351;DHT22;669;50.206;9.998;2023-02-11T15:14:27;4.80;88.40
1351;DHT22;669;50.206;9.998;2023-02-11T15:16:58;4.70;88.80
1351;DHT22;669;50.206;9.998;2023-02-11T15:19:30;4.70;88.80
1351;DHT22;669;50.206;9.998;2023-02-11T15:22:01;4.70;89.60
1351;DHT22;669;50.206;9.998;2023-02-11T15:24:31;4.70;89.30
1351;DHT22;669;50.206;9.998;2023-02-11T15:27:02;4.70;89.70
1351;DHT22;669;50.206;9.998;2023-02-11T15:29:36;4.60;90.00
1351;DHT22;669;50.206;9.998;2023-02-11T15:32:06;4.60;90.10
1351;DHT22;669;50.206;9.998;2023-02-11T15:34:38;4.60;90.40
1351;DHT22;669;50.206;9.998;2023-02-11T15:37:08;4.60;90.60
1351;DHT22;669;50.206;9.998;2023-02-11T15:39:39;4.60;90.90
1351;DHT22;669;50.206;9.998;2023-02-11T15:42:22;4.50;91.00
1351;DHT22;669;50.206;9.998;2023-02-11T15:45:08;4.50;91.10
1351;DHT22;669;50.206;9.998;2023-02-11T15:47:38;4.50;91.40
1351;DHT22;669;50.206;9.998;2023-02-11T15:50:07;4.50;91.40
1351;DHT22;669;50.206;9.998;2023-02-11T15:52:46;4.50;91.60
1351;DHT22;669;50.206;9.998;2023-02-11T15:55:16;4.50;91.80
1351;DHT22;669;50.206;9.998;2023-02-11T15:57:48;4.50;91.90
1351;DHT22;669;50.206;9.998;2023-02-11T16:00:21;4.50;91.80
1351;DHT22;669;50.206;9.998;2023-02-11T16:02:50;4.50;91.80
1351;DHT22;669;50.206;9.998;2023-02-11T16:05:32;4.50;91.80
1351;DHT22;669;50.206;9.998;2023-02-11T16:08:16;4.40;91.90
1351;DHT22;669;50.206;9.998;2023-02-11T16:10:54;4.40;92.00
1351;DHT22;669;50.206;9.998;2023-02-11T16:13:25;4.40;92.10
1351;DHT22;669;50.206;9.998;2023-02-11T16:15:59;4.40;92.30
1351;DHT22;669;50.206;9.998;2023-02-11T16:18:33;4.40;92.40
1351;DHT22;669;50.206;9.998;2023-02-11T16:21:11;4.30;92.60
1351;DHT22;669;50.206;9.998;2023-02-11T16:23:41;4.30;92.60
1351;DHT22;669;50.206;9.998;2023-02-11T16:26:20;4.30;92.70
1351;DHT22;669;50.206;9.998;2023-02-11T16:28:50;4.30;92.80
1351;DHT22;669;50.206;9.998;2023-02-11T16:31:19;4.30;92.90
1351;DHT22;669;50.206;9.998;2023-02-11T16:33:47;4.30;92.90
1351;DHT22;669;50.206;9.998;2023-02-11T16:36:15;4.30;93.00
1351;DHT22;669;50.206;9.998;2023-02-11T16:38:43;4.30;93.00
1351;DHT22;669;50.206;9.998;2023-02-11T16:41:11;4.30;93.10
1351;DHT22;669;50.206;9.998;2023-02-11T16:43:40;4.20;93.10
1351;DHT22;669;50.206;9.998;2023-02-11T16:46:10;4.20;93.10
1351;DHT22;669;50.206;9.998;2023-02-11T16:48:42;4.20;93.20
1351;DHT22;669;50.206;9.998;2023-02-11T16:51:10;4.20;93.10
1351;DHT22;669;50.206;9.998;2023-02-11T16:53:38;4.20;92.90
1351;DHT22;669;50.206;9.998;2023-02-11T16:56:12;4.10;93.00
1351;DHT22;669;50.206;9.998;2023-02-11T16:58:41;4.10;93.10
1351;DHT22;669;50.206;9.998;2023-02-11T17:01:09;4.10;93.30
1351;DHT22;669;50.206;9.998;2023-02-11T17:03:41;4.10;93.40
1351;DHT22;669;50.206;9.998;2023-02-11T17:06:10;4.10;93.50
1351;DHT22;669;50.206;9.998;2023-02-11T17:08:38;4.10;94.10
1351;DHT22;669;50.206;9.998;2023-02-11T17:11:06;4.10;93.70
1351;DHT22;669;50.206;9.998;2023-02-11T17:13:34;4.10;94.00
1351;DHT22;669;50.206;9.998;2023-02-11T17:16:02;4.10;94.10